Onoway, Canada
Current Conditions -  °F | °C
As of 10:00 AM on Wednesday 17 Dec 2014 (Local Time) from CWSE Reporting Station
Overcast Overcast  
Wind Chill: 21°   Ceiling: 1500
Heat Index: 21°   Visibility: 10mi
Dew Point: 19°   Wind: 3mph
Humidity: 91%   Direction: 200°SSW
Pressure: 29.83"   Gusts: NA
Location:  53.7°N, 114.18°W
Report Text: CWSE 171700Z 20003KT 10SM OVC015 M06/M07 A2983 RMK SLP150 LAST OBS/NEXT 172000Z T10591072 WSI/SWOB
Loading
Personal Weather Stations






























Interactive Weather Map New forecast layout! Learn more

10-Day Weather Forecast

Advertisements
Track Severe Weather on mobile